Station Historical Data
Daily Summary for March 26, 2017 Units:  Both    English   Metric
« Previous Day
Next Day »
Daily Weekly Monthly Yearly Custom
  High: Low: Average:
Temperature: 61.8 °F /  16.6 °C 34.3 °F /  1.3 °C 47.1 °F /  8.4 °C
Dew Point: 49.9 °F /  9.9 °C 31.7 °F /  -0.2 °C 40.8 °F /  4.9 °C
Humidity: 91% 61% 80%
Wind Speed: 12.0mph /  19.3km/h - 5mph /  8km/h
Wind Gust: 16.0mph /  25.7km/h - -
Wind- - ESE
Pressure: 30.33 in /  1027 hPa 29.97 in /  1014.8 hPa -
Precipitation: 0.00 in /  0 mm    
Historical Graphs
 
 
Tabular Data for March 26, 2017
Time Temperature Dew Point Pressure Wind Wind Speed Wind Gust Humidity Rainfall Rate (Hourly)
00:04 34.4 °F /  1.3 °C 31.8 °F /  -0.1 °C 30.33in /  1027hPa ENE 5.0mph /  8km/h 14.0mph /  22.5km/h 90% 0.01in /  0.25mm
00:09 34.3 °F /  1.3 °C 31.7 °F /  -0.2 °C 30.33in /  1027hPa ENE 6.0mph /  9.7km/h 14.0mph /  22.5km/h 90% 0.01in /  0.25mm
00:14 34.3 °F /  1.3 °C 31.7 °F /  -0.2 °C 30.33in /  1027hPa ENE 7.0mph /  11.3km/h 13.0mph /  20.9km/h 90% 0.01in /  0.25mm
00:19 34.3 °F /  1.3 °C 31.7 °F /  -0.2 °C 30.32in /  1026.6hPa ENE 6.0mph /  9.7km/h 13.0mph /  20.9km/h 90% 0.01in /  0.25mm
00:24 34.3 °F /  1.3 °C 31.7 °F /  -0.2 °C 30.32in /  1026.6hPa ENE 6.0mph /  9.7km/h 11.0mph /  17.7km/h 90% 0.01in /  0.25mm
00:29 34.3 °F /  1.3 °C 31.7 °F /  -0.2 °C 30.31in /  1026.3hPa ENE 6.0mph /  9.7km/h 13.0mph /  20.9km/h 90% 0.01in /  0.25mm
00:34 34.3 °F /  1.3 °C 31.7 °F /  -0.2 °C 30.31in /  1026.3hPa East 6.0mph /  9.7km/h 13.0mph /  20.9km/h 90% 0.00in /  0mm
00:39 34.3 °F /  1.3 °C 31.7 °F /  -0.2 °C 30.31in /  1026.3hPa ENE 4.0mph /  6.4km/h 11.0mph /  17.7km/h 90% 0.00in /  0mm
00:44 34.3 °F /  1.3 °C 31.7 °F /  -0.2 °C 30.31in /  1026.3hPa NE 6.0mph /  9.7km/h 13.0mph /  20.9km/h 90% 0.00in /  0mm
00:49 34.4 °F /  1.3 °C 31.8 °F /  -0.1 °C 30.31in /  1026.3hPa NE 5.0mph /  8km/h 9.0mph /  14.5km/h 90% 0.00in /  0mm
00:54 34.4 °F /  1.3 °C 31.8 °F /  -0.1 °C 30.31in /  1026.3hPa NE 4.0mph /  6.4km/h 14.0mph /  22.5km/h 90% 0.00in /  0mm
00:59 34.4 °F /  1.3 °C 31.8 °F /  -0.1 °C 30.31in /  1026.3hPa East 8.0mph /  12.9km/h 15.0mph /  24.1km/h 90% 0.00in /  0mm
01:05 34.5 °F /  1.4 °C 31.9 °F /  -0.1 °C 30.30in /  1026hPa NE 6.0mph /  9.7km/h 11.0mph /  17.7km/h 90% 0.00in /  0mm
01:10 34.6 °F /  1.4 °C 32.0 °F /  0 °C 30.31in /  1026.3hPa NNE 5.0mph /  8km/h 12.0mph /  19.3km/h 90% 0.00in /  0mm
01:15 34.6 °F /  1.4 °C 32.0 °F /  0 °C 30.31in /  1026.3hPa NE 8.0mph /  12.9km/h 13.0mph /  20.9km/h 90% 0.00in /  0mm
01:20 34.8 °F /  1.6 °C 32.2 °F /  0.1 °C 30.31in /  1026.3hPa ENE 7.0mph /  11.3km/h 16.0mph /  25.7km/h 90% 0.00in /  0mm
01:25 34.9 °F /  1.6 °C 32.3 °F /  0.2 °C 30.31in /  1026.3hPa ENE 6.0mph /  9.7km/h 16.0mph /  25.7km/h 90% 0.00in /  0mm
01:30 35.0 °F /  1.7 °C 32.4 °F /  0.2 °C 30.30in /  1026hPa ENE 6.0mph /  9.7km/h 13.0mph /  20.9km/h 90% 0.00in /  0mm
01:35 35.0 °F /  1.7 °C 32.4 °F /  0.2 °C 30.31in /  1026.3hPa NE 10.0mph /  16.1km/h 12.0mph /  19.3km/h 90% 0.00in /  0mm
01:40 35.1 °F /  1.7 °C 32.5 °F /  0.3 °C 30.31in /  1026.3hPa ENE 10.0mph /  16.1km/h 14.0mph /  22.5km/h 90% 0.00in /  0mm
01:45 35.1 °F /  1.7 °C 32.5 °F /  0.3 °C 30.30in /  1026hPa ENE 7.0mph /  11.3km/h 14.0mph /  22.5km/h 90% 0.00in /  0mm
01:50 35.1 °F /  1.7 °C 32.5 °F /  0.3 °C 30.30in /  1026hPa NE 5.0mph /  8km/h 12.0mph /  19.3km/h 90% 0.00in /  0mm
01:55 35.2 °F /  1.8 °C 32.6 °F /  0.3 °C 30.30in /  1026hPa ENE 6.0mph /  9.7km/h 12.0mph /  19.3km/h 90% 0.01in /  0.25mm
02:00 35.3 °F /  1.8 °C 32.7 °F /  0.4 °C 30.30in /  1026hPa NE 5.0mph /  8km/h 13.0mph /  20.9km/h 90% 0.02in /  0.51mm
02:05 35.3 °F /  1.8 °C 32.7 °F /  0.4 °C 30.30in /  1026hPa East 3.0mph /  4.8km/h 13.0mph /  20.9km/h 90% 0.02in /  0.51mm
02:10 35.3 °F /  1.8 °C 32.7 °F /  0.4 °C 30.30in /  1026hPa East 6.0mph /  9.7km/h 10.0mph /  16.1km/h 90% 0.02in /  0.51mm
02:15 35.3 °F /  1.8 °C 32.7 °F /  0.4 °C 30.29in /  1025.6hPa ENE 6.0mph /  9.7km/h 14.0mph /  22.5km/h 90% 0.02in /  0.51mm
02:20 35.3 °F /  1.8 °C 32.9 °F /  0.5 °C 30.29in /  1025.6hPa ENE 6.0mph /  9.7km/h 14.0mph /  22.5km/h 91% 0.02in /  0.51mm
02:25 35.4 °F /  1.9 °C 33.0 °F /  0.6 °C 30.29in /  1025.6hPa ENE 5.0mph /  8km/h 15.0mph /  24.1km/h 91% 0.02in /  0.51mm
02:30 35.4 °F /  1.9 °C 33.0 °F /  0.6 °C 30.28in /  1025.3hPa ENE 5.0mph /  8km/h 15.0mph /  24.1km/h 91% 0.02in /  0.51mm
02:35 35.4 °F /  1.9 °C 33.0 °F /  0.6 °C 30.27in /  1024.9hPa ENE 6.0mph /  9.7km/h 13.0mph /  20.9km/h 91% 0.03in /  0.76mm
02:40 35.5 °F /  1.9 °C 33.1 °F /  0.6 °C 30.27in /  1024.9hPa ENE 6.0mph /  9.7km/h 12.0mph /  19.3km/h 91% 0.03in /  0.76mm
02:45 35.4 °F /  1.9 °C 33.0 °F /  0.6 °C 30.27in /  1024.9hPa ENE 6.0mph /  9.7km/h 14.0mph /  22.5km/h 91% 0.03in /  0.76mm
02:55 35.5 °F /  1.9 °C 33.1 °F /  0.6 °C 30.27in /  1024.9hPa NE 9.0mph /  14.5km/h 15.0mph /  24.1km/h 91% 0.02in /  0.51mm
03:00 35.5 °F /  1.9 °C 33.1 °F /  0.6 °C 30.27in /  1024.9hPa ENE 3.0mph /  4.8km/h 13.0mph /  20.9km/h 91% 0.01in /  0.25mm
03:05 35.6 °F /  2 °C 33.2 °F /  0.7 °C 30.27in /  1024.9hPa ENE 3.0mph /  4.8km/h 8.0mph /  12.9km/h 91% 0.01in /  0.25mm
03:10 35.7 °F /  2.1 °C 33.3 °F /  0.7 °C 30.27in /  1024.9hPa NE 4.0mph /  6.4km/h 9.0mph /  14.5km/h 91% 0.01in /  0.25mm
03:15 35.7 °F /  2.1 °C 33.3 °F /  0.7 °C 30.26in /  1024.6hPa NE 9.0mph /  14.5km/h 10.0mph /  16.1km/h 91% 0.01in /  0.25mm
03:20 35.7 °F /  2.1 °C 33.3 °F /  0.7 °C 30.26in /  1024.6hPa ENE 6.0mph /  9.7km/h 11.0mph /  17.7km/h 91% 0.02in /  0.51mm
03:25 35.7 °F /  2.1 °C 33.3 °F /  0.7 °C 30.25in /  1024.3hPa ENE 6.0mph /  9.7km/h 12.0mph /  19.3km/h 91% 0.02in /  0.51mm
03:30 35.8 °F /  2.1 °C 33.4 °F /  0.8 °C 30.25in /  1024.3hPa NE 7.0mph /  11.3km/h 12.0mph /  19.3km/h 91% 0.02in /  0.51mm
03:35 35.8 °F /  2.1 °C 33.4 °F /  0.8 °C 30.25in /  1024.3hPa NE 7.0mph /  11.3km/h 11.0mph /  17.7km/h 91% 0.01in /  0.25mm
03:40 35.7 °F /  2.1 °C 33.3 °F /  0.7 °C 30.25in /  1024.3hPa NE 7.0mph /  11.3km/h 13.0mph /  20.9km/h 91% 0.01in /  0.25mm
03:45 35.8 °F /  2.1 °C 33.4 °F /  0.8 °C 30.25in /  1024.3hPa ENE 8.0mph /  12.9km/h 14.0mph /  22.5km/h 91% 0.01in /  0.25mm
03:50 35.8 °F /  2.1 °C 33.4 °F /  0.8 °C 30.25in /  1024.3hPa NE 6.0mph /  9.7km/h 14.0mph /  22.5km/h 91% 0.01in /  0.25mm
03:55 35.9 °F /  2.2 °C 33.5 °F /  0.8 °C 30.25in /  1024.3hPa NE 7.0mph /  11.3km/h 12.0mph /  19.3km/h 91% 0.01in /  0.25mm
04:00 35.9 °F /  2.2 °C 33.5 °F /  0.8 °C 30.25in /  1024.3hPa NE 6.0mph /  9.7km/h 10.0mph /  16.1km/h 91% 0.01in /  0.25mm
04:05 35.9 °F /  2.2 °C 33.5 °F /  0.8 °C 30.25in /  1024.3hPa ENE 12.0mph /  19.3km/h 12.0mph /  19.3km/h 91% 0.01in /  0.25mm
04:10 35.9 °F /  2.2 °C 33.5 °F /  0.8 °C 30.25in /  1024.3hPa NE 7.0mph /  11.3km/h 12.0mph /  19.3km/h 91% 0.01in /  0.25mm
04:15 36.0 °F /  2.2 °C 33.6 °F /  0.9 °C 30.24in /  1023.9hPa NNE 7.0mph /  11.3km/h 13.0mph /  20.9km/h 91% 0.01in /  0.25mm
04:20 36.0 °F /  2.2 °C 33.6 °F /  0.9 °C 30.24in /  1023.9hPa NE 4.0mph /  6.4km/h 9.0mph /  14.5km/h 91% 0.00in /  0mm
04:25 36.0 °F /  2.2 °C 33.6 °F /  0.9 °C 30.24in /  1023.9hPa NE 5.0mph /  8km/h 12.0mph /  19.3km/h 91% 0.00in /  0mm
04:30 36.1 °F /  2.3 °C 33.7 °F /  0.9 °C 30.24in /  1023.9hPa NE 6.0mph /  9.7km/h 12.0mph /  19.3km/h 91% 0.00in /  0mm
04:35 36.1 °F /  2.3 °C 33.7 °F /  0.9 °C 30.24in /  1023.9hPa NE 6.0mph /  9.7km/h 11.0mph /  17.7km/h 91% 0.00in /  0mm
04:40 36.1 °F /  2.3 °C 33.5 °F /  0.8 °C 30.24in /  1023.9hPa NE 6.0mph /  9.7km/h 11.0mph /  17.7km/h 90% 0.00in /  0mm
04:44 36.2 °F /  2.3 °C 33.5 °F /  0.8 °C 30.24in /  1023.9hPa NNE 4.0mph /  6.4km/h 10.0mph /  16.1km/h 90% 0.00in /  0mm
04:50 36.3 °F /  2.4 °C 33.6 °F /  0.9 °C 30.24in /  1023.9hPa NE 7.0mph /  11.3km/h 10.0mph /  16.1km/h 90% 0.00in /  0mm
04:55 36.2 °F /  2.3 °C 33.5 °F /  0.8 °C 30.23in /  1023.6hPa NE 7.0mph /  11.3km/h 11.0mph /  17.7km/h 90% 0.00in /  0mm
05:00 36.3 °F /  2.4 °C 33.6 °F /  0.9 °C 30.23in /  1023.6hPa NE 7.0mph /  11.3km/h 11.0mph /  17.7km/h 90% 0.00in /  0mm
05:05 36.3 °F /  2.4 °C 33.6 °F /  0.9 °C 30.23in /  1023.6hPa ENE 7.0mph /  11.3km/h 13.0mph /  20.9km/h 90% 0.00in /  0mm
05:10 36.3 °F /  2.4 °C 33.6 °F /  0.9 °C 30.23in /  1023.6hPa East 7.0mph /  11.3km/h 11.0mph /  17.7km/h 90% 0.00in /  0mm
05:15 36.4 °F /  2.4 °C 33.7 °F /  0.9 °C 30.23in /  1023.6hPa ENE 4.0mph /  6.4km/h 14.0mph /  22.5km/h 90% 0.00in /  0mm
05:20 36.4 °F /  2.4 °C 33.7 °F /  0.9 °C 30.23in /  1023.6hPa NE 9.0mph /  14.5km/h 10.0mph /  16.1km/h 90% 0.00in /  0mm
05:24 36.4 °F /  2.4 °C 33.7 °F /  0.9 °C 30.23in /  1023.6hPa NE 6.0mph /  9.7km/h 12.0mph /  19.3km/h 90% 0.00in /  0mm
05:30 36.4 °F /  2.4 °C 33.7 °F /  0.9 °C 30.22in /  1023.2hPa NE 7.0mph /  11.3km/h 12.0mph /  19.3km/h 90% 0.00in /  0mm
05:35 36.4 °F /  2.4 °C 33.7 °F /  0.9 °C 30.23in /  1023.6hPa NE 7.0mph /  11.3km/h 13.0mph /  20.9km/h 90% 0.00in /  0mm
05:40 36.4 °F /  2.4 °C 33.7 °F /  0.9 °C 30.22in /  1023.2hPa NE 7.0mph /  11.3km/h 15.0mph /  24.1km/h 90% 0.00in /  0mm
05:45 36.4 °F /  2.4 °C 33.7 °F /  0.9 °C 30.22in /  1023.2hPa NE 7.0mph /  11.3km/h 15.0mph /  24.1km/h 90% 0.00in /  0mm
05:50 36.5 °F /  2.5 °C 33.8 °F /  1 °C 30.22in /  1023.2hPa NE 6.0mph /  9.7km/h 13.0mph /  20.9km/h 90% 0.00in /  0mm
05:54 36.5 °F /  2.5 °C 33.8 °F /  1 °C 30.22in /  1023.2hPa NE 6.0mph /  9.7km/h 13.0mph /  20.9km/h 90% 0.00in /  0mm
06:00 36.6 °F /  2.6 °C 33.9 °F /  1.1 °C 30.22in /  1023.2hPa NE 6.0mph /  9.7km/h 11.0mph /  17.7km/h 90% 0.00in /  0mm
06:05 36.6 °F /  2.6 °C 33.9 °F /  1.1 °C 30.22in /  1023.2hPa NE 7.0mph /  11.3km/h 10.0mph /  16.1km/h 90% 0.00in /  0mm
06:10 36.6 °F /  2.6 °C 33.9 °F /  1.1 °C 30.22in /  1023.2hPa NNE 3.0mph /  4.8km/h 13.0mph /  20.9km/h 90% 0.00in /  0mm
06:15 36.7 °F /  2.6 °C 34.0 °F /  1.1 °C 30.21in /  1022.9hPa NE 2.0mph /  3.2km/h 10.0mph /  16.1km/h 90% 0.00in /  0mm
06:20 36.8 °F /  2.7 °C 34.1 °F /  1.2 °C 30.22in /  1023.2hPa ENE 3.0mph /  4.8km/h 8.0mph /  12.9km/h 90% 0.00in /  0mm
06:25 36.9 °F /  2.7 °C 34.2 °F /  1.2 °C 30.21in /  1022.9hPa NE 4.0mph /  6.4km/h 10.0mph /  16.1km/h 90% 0.00in /  0mm
06:30 36.9 °F /  2.7 °C 34.2 °F /  1.2 °C 30.21in /  1022.9hPa ENE 6.0mph /  9.7km/h 13.0mph /  20.9km/h 90% 0.00in /  0mm
06:35 37.0 °F /  2.8 °C 34.3 °F /  1.3 °C 30.21in /  1022.9hPa ENE 5.0mph /  8km/h 13.0mph /  20.9km/h 90% 0.00in /  0mm
06:40 37.0 °F /  2.8 °C 34.3 °F /  1.3 °C 30.21in /  1022.9hPa NE 5.0mph /  8km/h 10.0mph /  16.1km/h 90% 0.00in /  0mm
06:45 37.1 °F /  2.8 °C 34.4 °F /  1.3 °C 30.21in /  1022.9hPa NE 5.0mph /  8km/h 11.0mph /  17.7km/h 90% 0.00in /  0mm
06:49 37.2 °F /  2.9 °C 34.5 °F /  1.4 °C 30.21in /  1022.9hPa ENE 5.0mph /  8km/h 10.0mph /  16.1km/h 90% 0.00in /  0mm
06:54 37.1 °F /  2.8 °C 34.4 °F /  1.3 °C 30.21in /  1022.9hPa ENE 4.0mph /  6.4km/h 9.0mph /  14.5km/h 90% 0.00in /  0mm
06:59 37.2 °F /  2.9 °C 34.5 °F /  1.4 °C 30.21in /  1022.9hPa NE 5.0mph /  8km/h 11.0mph /  17.7km/h 90% 0.00in /  0mm
07:04 37.3 °F /  2.9 °C 34.6 °F /  1.4 °C 30.20in /  1022.6hPa NE 5.0mph /  8km/h 13.0mph /  20.9km/h 90% 0.00in /  0mm
07:10 37.3 °F /  2.9 °C 34.6 °F /  1.4 °C 30.20in /  1022.6hPa NE 6.0mph /  9.7km/h 13.0mph /  20.9km/h 90% 0.00in /  0mm
07:15 37.4 °F /  3 °C 34.7 °F /  1.5 °C 30.20in /  1022.6hPa NE 6.0mph /  9.7km/h 11.0mph /  17.7km/h 90% 0.00in /  0mm
07:20 37.4 °F /  3 °C 34.7 °F /  1.5 °C 30.20in /  1022.6hPa NE 6.0mph /  9.7km/h 12.0mph /  19.3km/h 90% 0.00in /  0mm
07:25 37.5 °F /  3.1 °C 34.8 °F /  1.6 °C 30.20in /  1022.6hPa ENE 9.0mph /  14.5km/h 12.0mph /  19.3km/h 90% 0.00in /  0mm
07:30 37.6 °F /  3.1 °C 34.9 °F /  1.6 °C 30.20in /  1022.6hPa NE 4.0mph /  6.4km/h 12.0mph /  19.3km/h 90% 0.00in /  0mm
07:34 37.6 °F /  3.1 °C 34.9 °F /  1.6 °C 30.20in /  1022.6hPa NE 6.0mph /  9.7km/h 12.0mph /  19.3km/h 90% 0.00in /  0mm
07:40 37.7 °F /  3.2 °C 35.0 °F /  1.7 °C 30.20in /  1022.6hPa NE 6.0mph /  9.7km/h 11.0mph /  17.7km/h 90% 0.00in /  0mm
07:45 37.9 °F /  3.3 °C 35.2 °F /  1.8 °C 30.20in /  1022.6hPa NE 6.0mph /  9.7km/h 11.0mph /  17.7km/h 90% 0.00in /  0mm
07:49 37.9 °F /  3.3 °C 35.2 °F /  1.8 °C 30.19in /  1022.2hPa NE 9.0mph /  14.5km/h 12.0mph /  19.3km/h 90% 0.00in /  0mm
07:55 38.0 °F /  3.3 °C 35.3 °F /  1.8 °C 30.19in /  1022.2hPa NE 7.0mph /  11.3km/h 11.0mph /  17.7km/h 90% 0.00in /  0mm
08:00 38.0 °F /  3.3 °C 35.3 °F /  1.8 °C 30.19in /  1022.2hPa ENE 7.0mph /  11.3km/h 12.0mph /  19.3km/h 90% 0.00in /  0mm
08:04 38.2 °F /  3.4 °C 35.5 °F /  1.9 °C 30.19in /  1022.2hPa ENE 6.0mph /  9.7km/h 12.0mph /  19.3km/h 90% 0.00in /  0mm
08:10 38.4 °F /  3.6 °C 35.7 °F /  2.1 °C 30.18in /  1021.9hPa NE 6.0mph /  9.7km/h 10.0mph /  16.1km/h 90% 0.00in /  0mm
08:15 38.6 °F /  3.7 °C 35.9 °F /  2.2 °C 30.18in /  1021.9hPa NE 6.0mph /  9.7km/h 10.0mph /  16.1km/h 90% 0.00in /  0mm
08:20 38.8 °F /  3.8 °C 36.1 °F /  2.3 °C 30.18in /  1021.9hPa NE 5.0mph /  8km/h 11.0mph /  17.7km/h 90% 0.00in /  0mm
08:25 39.0 °F /  3.9 °C 36.0 °F /  2.2 °C 30.18in /  1021.9hPa ENE 5.0mph /  8km/h 8.0mph /  12.9km/h 89% 0.00in /  0mm
08:30 39.2 °F /  4 °C 36.2 °F /  2.3 °C 30.18in /  1021.9hPa ENE 8.0mph /  12.9km/h 11.0mph /  17.7km/h 89% 0.00in /  0mm
08:34 39.4 °F /  4.1 °C 36.4 °F /  2.4 °C 30.18in /  1021.9hPa NE 6.0mph /  9.7km/h 11.0mph /  17.7km/h 89% 0.00in /  0mm
08:40 39.6 °F /  4.2 °C 36.6 °F /  2.6 °C 30.18in /  1021.9hPa NE 6.0mph /  9.7km/h 11.0mph /  17.7km/h 89% 0.00in /  0mm
08:45 39.9 °F /  4.4 °C 36.9 °F /  2.7 °C 30.18in /  1021.9hPa NE 6.0mph /  9.7km/h 10.0mph /  16.1km/h 89% 0.00in /  0mm
08:50 40.2 °F /  4.6 °C 37.2 °F /  2.9 °C 30.17in /  1021.6hPa NE 6.0mph /  9.7km/h 11.0mph /  17.7km/h 89% 0.00in /  0mm
08:54 40.4 °F /  4.7 °C 37.1 °F /  2.8 °C 30.17in /  1021.6hPa East 6.0mph /  9.7km/h 11.0mph /  17.7km/h 88% 0.00in /  0mm
08:59 40.7 °F /  4.8 °C 37.4 °F /  3 °C 30.17in /  1021.6hPa NE 6.0mph /  9.7km/h 11.0mph /  17.7km/h 88% 0.00in /  0mm
09:04 40.9 °F /  4.9 °C 37.6 °F /  3.1 °C 30.17in /  1021.6hPa ENE 2.0mph /  3.2km/h 9.0mph /  14.5km/h 88% 0.00in /  0mm
09:09 41.0 °F /  5 °C 37.7 °F /  3.2 °C 30.17in /  1021.6hPa NE 5.0mph /  8km/h 9.0mph /  14.5km/h 88% 0.00in /  0mm
09:14 41.3 °F /  5.2 °C 38.0 °F /  3.3 °C 30.17in /  1021.6hPa NE 8.0mph /  12.9km/h 11.0mph /  17.7km/h 88% 0.00in /  0mm
09:20 41.7 °F /  5.4 °C 38.4 °F /  3.6 °C 30.16in /  1021.2hPa East 7.0mph /  11.3km/h 9.0mph /  14.5km/h 88% 0.00in /  0mm
09:25 42.0 °F /  5.6 °C 38.4 °F /  3.6 °C 30.16in /  1021.2hPa NE 9.0mph /  14.5km/h 10.0mph /  16.1km/h 87% 0.00in /  0mm
09:30 42.5 °F /  5.8 °C 38.9 °F /  3.8 °C 30.16in /  1021.2hPa NE 3.0mph /  4.8km/h 10.0mph /  16.1km/h 87% 0.00in /  0mm
09:35 42.8 °F /  6 °C 39.2 °F /  4 °C 30.16in /  1021.2hPa NE 4.0mph /  6.4km/h 12.0mph /  19.3km/h 87% 0.00in /  0mm
09:40 43.1 °F /  6.2 °C 39.2 °F /  4 °C 30.16in /  1021.2hPa NE 5.0mph /  8km/h 12.0mph /  19.3km/h 86% 0.00in /  0mm
09:44 43.4 °F /  6.3 °C 39.5 °F /  4.2 °C 30.16in /  1021.2hPa NE 5.0mph /  8km/h 10.0mph /  16.1km/h 86% 0.00in /  0mm
09:50 43.8 °F /  6.6 °C 39.9 °F /  4.4 °C 30.16in /  1021.2hPa NE 5.0mph /  8km/h 10.0mph /  16.1km/h 86% 0.00in /  0mm
09:55 44.1 °F /  6.7 °C 40.2 °F /  4.6 °C 30.16in /  1021.2hPa NE 4.0mph /  6.4km/h 8.0mph /  12.9km/h 86% 0.00in /  0mm
10:00 44.5 °F /  6.9 °C 40.6 °F /  4.8 °C 30.16in /  1021.2hPa NE 4.0mph /  6.4km/h 8.0mph /  12.9km/h 86% 0.00in /  0mm
10:05 44.8 °F /  7.1 °C 40.6 °F /  4.8 °C 30.15in /  1020.9hPa NE 5.0mph /  8km/h 8.0mph /  12.9km/h 85% 0.00in /  0mm
10:10 45.4 °F /  7.4 °C 41.2 °F /  5.1 °C 30.15in /  1020.9hPa NE 4.0mph /  6.4km/h 7.0mph /  11.3km/h 85% 0.00in /  0mm
10:14 45.6 °F /  7.6 °C 41.0 °F /  5 °C 30.16in /  1021.2hPa NNE 3.0mph /  4.8km/h 8.0mph /  12.9km/h 84% 0.00in /  0mm
10:20 45.9 °F /  7.7 °C 41.0 °F /  5 °C 30.15in /  1020.9hPa NE 4.0mph /  6.4km/h 8.0mph /  12.9km/h 83% 0.00in /  0mm
10:25 46.6 °F /  8.1 °C 42.0 °F /  5.6 °C 30.16in /  1021.2hPa ENE 5.0mph /  8km/h 8.0mph /  12.9km/h 84% 0.00in /  0mm
10:29 47.2 °F /  8.4 °C 42.3 °F /  5.7 °C 30.16in /  1021.2hPa NE 3.0mph /  4.8km/h 7.0mph /  11.3km/h 83% 0.00in /  0mm
10:35 47.5 °F /  8.6 °C 42.6 °F /  5.9 °C 30.16in /  1021.2hPa NE 3.0mph /  4.8km/h 7.0mph /  11.3km/h 83% 0.00in /  0mm
10:39 47.4 °F /  8.6 °C 42.2 °F /  5.7 °C 30.16in /  1021.2hPa NE 3.0mph /  4.8km/h 7.0mph /  11.3km/h 82% 0.00in /  0mm
10:44 47.7 °F /  8.7 °C 42.5 °F /  5.8 °C 30.16in /  1021.2hPa NE 3.0mph /  4.8km/h 8.0mph /  12.9km/h 82% 0.00in /  0mm
10:50 47.9 °F /  8.8 °C 42.7 °F /  5.9 °C 30.15in /  1020.9hPa NE 3.0mph /  4.8km/h 9.0mph /  14.5km/h 82% 0.00in /  0mm
10:55 47.9 °F /  8.8 °C 42.7 °F /  5.9 °C 30.15in /  1020.9hPa NE 4.0mph /  6.4km/h 9.0mph /  14.5km/h 82% 0.00in /  0mm
10:59 48.2 °F /  9 °C 43.0 °F /  6.1 °C 30.15in /  1020.9hPa NNE 3.0mph /  4.8km/h 8.0mph /  12.9km/h 82% 0.00in /  0mm
11:04 48.2 °F /  9 °C 42.6 °F /  5.9 °C 30.15in /  1020.9hPa NE 2.0mph /  3.2km/h 7.0mph /  11.3km/h 81% 0.00in /  0mm
11:09 48.3 °F /  9.1 °C 43.1 °F /  6.2 °C 30.15in /  1020.9hPa NE 4.0mph /  6.4km/h 8.0mph /  12.9km/h 82% 0.00in /  0mm
11:14 48.7 °F /  9.3 °C 43.5 °F /  6.4 °C 30.15in /  1020.9hPa NNE 3.0mph /  4.8km/h 8.0mph /  12.9km/h 82% 0.00in /  0mm
11:20 48.8 °F /  9.3 °C 43.2 °F /  6.2 °C 30.14in /  1020.5hPa NNE 4.0mph /  6.4km/h 5.0mph /  8km/h 81% 0.00in /  0mm
11:24 49.0 °F /  9.4 °C 43.4 °F /  6.3 °C 30.14in /  1020.5hPa NNE 4.0mph /  6.4km/h 6.0mph /  9.7km/h 81% 0.00in /  0mm
11:29 49.3 °F /  9.6 °C 43.7 °F /  6.5 °C 30.14in /  1020.5hPa NE 3.0mph /  4.8km/h 5.0mph /  8km/h 81% 0.00in /  0mm
11:35 50.1 °F /  10.1 °C 44.5 °F /  6.9 °C 30.14in /  1020.5hPa NNE 1.0mph /  1.6km/h 4.0mph /  6.4km/h 81% 0.00in /  0mm
11:39 50.5 °F /  10.3 °C 44.6 °F /  7 °C 30.14in /  1020.5hPa NNE 3.0mph /  4.8km/h 5.0mph /  8km/h 80% 0.00in /  0mm
11:44 50.7 °F /  10.4 °C 44.8 °F /  7.1 °C 30.14in /  1020.5hPa NNE 3.0mph /  4.8km/h 5.0mph /  8km/h 80% 0.00in /  0mm
11:49 50.9 °F /  10.5 °C 44.6 °F /  7 °C 30.14in /  1020.5hPa NNE 3.0mph /  4.8km/h 5.0mph /  8km/h 79% 0.00in /  0mm
11:55 51.4 °F /  10.8 °C 45.1 °F /  7.3 °C 30.14in /  1020.5hPa NNE 3.0mph /  4.8km/h 5.0mph /  8km/h 79% 0.00in /  0mm
12:00 51.7 °F /  10.9 °C 45.1 °F /  7.3 °C 30.14in /  1020.5hPa NE 3.0mph /  4.8km/h 6.0mph /  9.7km/h 78% 0.00in /  0mm
12:05 52.3 °F /  11.3 °C 46.0 °F /  7.8 °C 30.13in /  1020.2hPa NE 3.0mph /  4.8km/h 6.0mph /  9.7km/h 79% 0.00in /  0mm
12:09 53.0 °F /  11.7 °C 46.0 °F /  7.8 °C 30.13in /  1020.2hPa NNE 3.0mph /  4.8km/h 7.0mph /  11.3km/h 77% 0.00in /  0mm
12:14 53.7 °F /  12.1 °C 47.0 °F /  8.3 °C 30.13in /  1020.2hPa NNE 1.0mph /  1.6km/h 7.0mph /  11.3km/h 78% 0.00in /  0mm
12:19 54.1 °F /  12.3 °C 46.7 °F /  8.2 °C 30.13in /  1020.2hPa Calm   5.0mph /  8km/h 76% 0.00in /  0mm
12:24 54.8 °F /  12.7 °C 47.0 °F /  8.3 °C 30.13in /  1020.2hPa NNW 2.0mph /  3.2km/h 5.0mph /  8km/h 75% 0.00in /  0mm
12:29 56.5 °F /  13.6 °C 48.3 °F /  9.1 °C 30.12in /  1019.9hPa SSE 4.0mph /  6.4km/h 8.0mph /  12.9km/h 74% 0.00in /  0mm
12:34 57.7 °F /  14.3 °C 48.7 °F /  9.3 °C 30.12in /  1019.9hPa ESE 4.0mph /  6.4km/h 9.0mph /  14.5km/h 72% 0.00in /  0mm
12:39 57.7 °F /  14.3 °C 48.7 °F /  9.3 °C 30.12in /  1019.9hPa NE 5.0mph /  8km/h 9.0mph /  14.5km/h 72% 0.00in /  0mm
12:44 58.7 °F /  14.8 °C 48.9 °F /  9.4 °C 30.12in /  1019.9hPa ESE 4.0mph /  6.4km/h 9.0mph /  14.5km/h 70% 0.00in /  0mm
12:49 59.0 °F /  15 °C 49.2 °F /  9.6 °C 30.11in /  1019.5hPa ESE 3.0mph /  4.8km/h 11.0mph /  17.7km/h 70% 0.00in /  0mm
12:54 59.2 °F /  15.1 °C 49.0 °F /  9.4 °C 30.11in /  1019.5hPa SE 5.0mph /  8km/h 11.0mph /  17.7km/h 69% 0.00in /  0mm
12:59 59.0 °F /  15 °C 48.8 °F /  9.3 °C 30.11in /  1019.5hPa SSE 6.0mph /  9.7km/h 11.0mph /  17.7km/h 69% 0.00in /  0mm
13:05 59.5 °F /  15.3 °C 48.9 °F /  9.4 °C 30.11in /  1019.5hPa SSE 6.0mph /  9.7km/h 10.0mph /  16.1km/h 68% 0.00in /  0mm
13:10 60.1 °F /  15.6 °C 49.5 °F /  9.7 °C 30.11in /  1019.5hPa South 5.0mph /  8km/h 9.0mph /  14.5km/h 68% 0.00in /  0mm
13:14 60.4 °F /  15.8 °C 49.4 °F /  9.7 °C 30.11in /  1019.5hPa SSW 3.0mph /  4.8km/h 11.0mph /  17.7km/h 67% 0.00in /  0mm
13:19 60.6 °F /  15.9 °C 49.2 °F /  9.6 °C 30.10in /  1019.2hPa SSW 6.0mph /  9.7km/h 10.0mph /  16.1km/h 66% 0.00in /  0mm
13:24 60.9 °F /  16.1 °C 49.9 °F /  9.9 °C 30.10in /  1019.2hPa SSW 3.0mph /  4.8km/h 10.0mph /  16.1km/h 67% 0.00in /  0mm
13:29 61.0 °F /  16.1 °C 49.1 °F /  9.5 °C 30.10in /  1019.2hPa South 7.0mph /  11.3km/h 12.0mph /  19.3km/h 65% 0.00in /  0mm
13:34 60.8 °F /  16 °C 49.4 °F /  9.7 °C 30.10in /  1019.2hPa SE 5.0mph /  8km/h 11.0mph /  17.7km/h 66% 0.00in /  0mm
13:39 60.7 °F /  15.9 °C 48.9 °F /  9.4 °C 30.09in /  1018.8hPa SW 7.0mph /  11.3km/h 11.0mph /  17.7km/h 65% 0.00in /  0mm
13:44 60.4 °F /  15.8 °C 48.6 °F /  9.2 °C 30.09in /  1018.8hPa South 6.0mph /  9.7km/h 13.0mph /  20.9km/h 65% 0.00in /  0mm
13:49 60.5 °F /  15.8 °C 48.7 °F /  9.3 °C 30.09in /  1018.8hPa South 6.0mph /  9.7km/h 13.0mph /  20.9km/h 65% 0.00in /  0mm
13:54 60.0 °F /  15.6 °C 48.2 °F /  9 °C 30.08in /  1018.5hPa South 6.0mph /  9.7km/h 12.0mph /  19.3km/h 65% 0.00in /  0mm
14:00 59.9 °F /  15.5 °C 48.5 °F /  9.2 °C 30.08in /  1018.5hPa South 6.0mph /  9.7km/h 12.0mph /  19.3km/h 66% 0.00in /  0mm
14:04 60.0 °F /  15.6 °C 48.2 °F /  9 °C 30.08in /  1018.5hPa South 6.0mph /  9.7km/h 11.0mph /  17.7km/h 65% 0.00in /  0mm
14:10 59.8 °F /  15.4 °C 48.0 °F /  8.9 °C 30.08in /  1018.5hPa SE 6.0mph /  9.7km/h 10.0mph /  16.1km/h 65% 0.00in /  0mm
14:15 60.2 °F /  15.7 °C 48.4 °F /  9.1 °C 30.08in /  1018.5hPa SSE 5.0mph /  8km/h 10.0mph /  16.1km/h 65% 0.00in /  0mm
14:19 60.0 °F /  15.6 °C 47.8 °F /  8.8 °C 30.07in /  1018.2hPa SSE 6.0mph /  9.7km/h 12.0mph /  19.3km/h 64% 0.00in /  0mm
14:24 60.7 °F /  15.9 °C 48.4 °F /  9.1 °C 30.07in /  1018.2hPa SSE 6.0mph /  9.7km/h 12.0mph /  19.3km/h 64% 0.00in /  0mm
14:29 60.4 °F /  15.8 °C 48.2 °F /  9 °C 30.06in /  1017.8hPa South 4.0mph /  6.4km/h 9.0mph /  14.5km/h 64% 0.00in /  0mm
14:34 60.3 °F /  15.7 °C 48.1 °F /  8.9 °C 30.06in /  1017.8hPa SSE 7.0mph /  11.3km/h 10.0mph /  16.1km/h 64% 0.00in /  0mm
14:39 60.3 °F /  15.7 °C 48.1 °F /  8.9 °C 30.06in /  1017.8hPa SE 3.0mph /  4.8km/h 9.0mph /  14.5km/h 64% 0.00in /  0mm
14:44 60.3 °F /  15.7 °C 48.1 °F /  8.9 °C 30.05in /  1017.5hPa SSE 3.0mph /  4.8km/h 7.0mph /  11.3km/h 64% 0.00in /  0mm
14:54 59.8 °F /  15.4 °C 48.0 °F /  8.9 °C 30.05in /  1017.5hPa SSE 5.0mph /  8km/h 14.0mph /  22.5km/h 65% 0.00in /  0mm
14:59 59.8 °F /  15.4 °C 48.0 °F /  8.9 °C 30.05in /  1017.5hPa SE 5.0mph /  8km/h 14.0mph /  22.5km/h 65% 0.00in /  0mm
15:04 60.1 °F /  15.6 °C 47.9 °F /  8.8 °C 30.05in /  1017.5hPa SSE 5.0mph /  8km/h 11.0mph /  17.7km/h 64% 0.00in /  0mm
15:09 60.2 °F /  15.7 °C 48.4 °F /  9.1 °C 30.04in /  1017.2hPa SSE 6.0mph /  9.7km/h 12.0mph /  19.3km/h 65% 0.00in /  0mm
15:15 60.2 °F /  15.7 °C 48.0 °F /  8.9 °C 30.04in /  1017.2hPa SSE 6.0mph /  9.7km/h 12.0mph /  19.3km/h 64% 0.00in /  0mm
15:20 60.5 °F /  15.8 °C 48.3 °F /  9.1 °C 30.04in /  1017.2hPa SSE 6.0mph /  9.7km/h 12.0mph /  19.3km/h 64% 0.00in /  0mm
15:24 60.7 °F /  15.9 °C 48.0 °F /  8.9 °C 30.03in /  1016.8hPa SSE 5.0mph /  8km/h 12.0mph /  19.3km/h 63% 0.00in /  0mm
15:29 61.3 °F /  16.3 °C 49.0 °F /  9.4 °C 30.04in /  1017.2hPa SSE 6.0mph /  9.7km/h 12.0mph /  19.3km/h 64% 0.00in /  0mm
15:39 60.9 °F /  16.1 °C 48.6 °F /  9.2 °C 30.03in /  1016.8hPa SSE 5.0mph /  8km/h 8.0mph /  12.9km/h 64% 0.00in /  0mm
15:44 61.2 °F /  16.2 °C 48.5 °F /  9.2 °C 30.03in /  1016.8hPa SSE 9.0mph /  14.5km/h 11.0mph /  17.7km/h 63% 0.00in /  0mm
15:49 61.3 °F /  16.3 °C 48.2 °F /  9 °C 30.03in /  1016.8hPa South 5.0mph /  8km/h 11.0mph /  17.7km/h 62% 0.00in /  0mm
15:54 61.1 °F /  16.2 °C 48.4 °F /  9.1 °C 30.03in /  1016.8hPa SSE 9.0mph /  14.5km/h 13.0mph /  20.9km/h 63% 0.00in /  0mm
15:59 61.3 °F /  16.3 °C 48.6 °F /  9.2 °C 30.03in /  1016.8hPa South 7.0mph /  11.3km/h 13.0mph /  20.9km/h 63% 0.00in /  0mm
16:04 61.6 °F /  16.4 °C 48.0 °F /  8.9 °C 30.02in /  1016.5hPa SSE 7.0mph /  11.3km/h 13.0mph /  20.9km/h 61% 0.00in /  0mm
16:09 61.8 °F /  16.6 °C 48.2 °F /  9 °C 30.02in /  1016.5hPa SSE 7.0mph /  11.3km/h 13.0mph /  20.9km/h 61% 0.00in /  0mm
16:14 61.8 °F /  16.6 °C 48.6 °F /  9.2 °C 30.02in /  1016.5hPa South 7.0mph /  11.3km/h 13.0mph /  20.9km/h 62% 0.00in /  0mm
16:19 61.8 °F /  16.6 °C 48.6 °F /  9.2 °C 30.02in /  1016.5hPa South 8.0mph /  12.9km/h 10.0mph /  16.1km/h 62% 0.00in /  0mm
16:24 61.6 °F /  16.4 °C 48.0 °F /  8.9 °C 30.01in /  1016.1hPa ESE 5.0mph /  8km/h 14.0mph /  22.5km/h 61% 0.00in /  0mm
16:29 61.2 °F /  16.2 °C 47.6 °F /  8.7 °C 30.01in /  1016.1hPa South 7.0mph /  11.3km/h 14.0mph /  22.5km/h 61% 0.00in /  0mm
16:34 60.9 °F /  16.1 °C 47.8 °F /  8.8 °C 30.01in /  1016.1hPa South 6.0mph /  9.7km/h 11.0mph /  17.7km/h 62% 0.00in /  0mm
16:39 60.9 °F /  16.1 °C 47.8 °F /  8.8 °C 30.01in /  1016.1hPa SSW 3.0mph /  4.8km/h 11.0mph /  17.7km/h 62% 0.00in /  0mm
16:44 61.0 °F /  16.1 °C 47.9 °F /  8.8 °C 30.01in /  1016.1hPa South 3.0mph /  4.8km/h 13.0mph /  20.9km/h 62% 0.00in /  0mm
16:49 60.8 °F /  16 °C 47.7 °F /  8.7 °C 30.01in /  1016.1hPa ESE 8.0mph /  12.9km/h 10.0mph /  16.1km/h 62% 0.00in /  0mm
16:54 60.6 °F /  15.9 °C 47.5 °F /  8.6 °C 30.01in /  1016.1hPa South 8.0mph /  12.9km/h 10.0mph /  16.1km/h 62% 0.00in /  0mm
16:59 60.3 °F /  15.7 °C 47.2 °F /  8.4 °C 30.01in /  1016.1hPa SE 6.0mph /  9.7km/h 12.0mph /  19.3km/h 62% 0.00in /  0mm
17:09 59.6 °F /  15.3 °C 47.0 °F /  8.3 °C 30.01in /  1016.1hPa SSE 8.0mph /  12.9km/h 15.0mph /  24.1km/h 63% 0.00in /  0mm
17:14 59.5 °F /  15.3 °C 46.9 °F /  8.3 °C 30.01in /  1016.1hPa South 4.0mph /  6.4km/h 9.0mph /  14.5km/h 63% 0.00in /  0mm
17:19 59.2 °F /  15.1 °C 46.6 °F /  8.1 °C 30.01in /  1016.1hPa South 4.0mph /  6.4km/h 10.0mph /  16.1km/h 63% 0.00in /  0mm
17:24 58.9 °F /  14.9 °C 46.3 °F /  7.9 °C 30.01in /  1016.1hPa SSE 5.0mph /  8km/h 10.0mph /  16.1km/h 63% 0.00in /  0mm
17:29 58.7 °F /  14.8 °C 46.5 °F /  8.1 °C 30.02in /  1016.5hPa South 5.0mph /  8km/h 8.0mph /  12.9km/h 64% 0.00in /  0mm
17:34 58.3 °F /  14.6 °C 46.2 °F /  7.9 °C 30.02in /  1016.5hPa South 4.0mph /  6.4km/h 10.0mph /  16.1km/h 64% 0.00in /  0mm
17:39 58.0 °F /  14.4 °C 46.3 °F /  7.9 °C 30.01in /  1016.1hPa SSE 5.0mph /  8km/h 10.0mph /  16.1km/h 65% 0.00in /  0mm
17:44 57.8 °F /  14.3 °C 46.1 °F /  7.8 °C 30.02in /  1016.5hPa SSE 5.0mph /  8km/h 12.0mph /  19.3km/h 65% 0.00in /  0mm
17:49 57.4 °F /  14.1 °C 45.7 °F /  7.6 °C 30.02in /  1016.5hPa SSE 6.0mph /  9.7km/h 12.0mph /  19.3km/h 65% 0.00in /  0mm
17:59 56.9 °F /  13.8 °C 45.7 °F /  7.6 °C 30.01in /  1016.1hPa SSE 5.0mph /  8km/h 12.0mph /  19.3km/h 66% 0.00in /  0mm
18:04 56.7 °F /  13.7 °C 45.5 °F /  7.5 °C 30.02in /  1016.5hPa South 4.0mph /  6.4km/h 10.0mph /  16.1km/h 66% 0.00in /  0mm
18:09 56.5 °F /  13.6 °C 45.3 °F /  7.4 °C 30.01in /  1016.1hPa SE 6.0mph /  9.7km/h 13.0mph /  20.9km/h 66% 0.00in /  0mm
18:14 56.5 °F /  13.6 °C 45.3 °F /  7.4 °C 30.01in /  1016.1hPa SW 5.0mph /  8km/h 13.0mph /  20.9km/h 66% 0.00in /  0mm
18:19 56.3 °F /  13.5 °C 45.1 °F /  7.3 °C 30.01in /  1016.1hPa SSE 4.0mph /  6.4km/h 11.0mph /  17.7km/h 66% 0.00in /  0mm
18:24 56.2 °F /  13.4 °C 45.4 °F /  7.4 °C 30.01in /  1016.1hPa SE 7.0mph /  11.3km/h 11.0mph /  17.7km/h 67% 0.00in /  0mm
18:29 56.0 °F /  13.3 °C 45.2 °F /  7.3 °C 30.01in /  1016.1hPa SSE 5.0mph /  8km/h 9.0mph /  14.5km/h 67% 0.00in /  0mm
18:34 56.0 °F /  13.3 °C 45.2 °F /  7.3 °C 30.01in /  1016.1hPa SE 4.0mph /  6.4km/h 10.0mph /  16.1km/h 67% 0.00in /  0mm
18:39 55.7 °F /  13.2 °C 44.9 °F /  7.2 °C 30.01in /  1016.1hPa SSE 5.0mph /  8km/h 12.0mph /  19.3km/h 67% 0.00in /  0mm
18:44 55.5 °F /  13.1 °C 44.7 °F /  7.1 °C 30.01in /  1016.1hPa SSE 6.0mph /  9.7km/h 12.0mph /  19.3km/h 67% 0.00in /  0mm
18:49 55.2 °F /  12.9 °C 44.8 °F /  7.1 °C 30.02in /  1016.5hPa SSE 5.0mph /  8km/h 11.0mph /  17.7km/h 68% 0.00in /  0mm
18:54 55.1 °F /  12.8 °C 44.7 °F /  7.1 °C 30.02in /  1016.5hPa South 5.0mph /  8km/h 11.0mph /  17.7km/h 68% 0.00in /  0mm
18:59 54.8 °F /  12.7 °C 44.4 °F /  6.9 °C 30.02in /  1016.5hPa South 5.0mph /  8km/h 11.0mph /  17.7km/h 68% 0.00in /  0mm
19:04 54.5 °F /  12.5 °C 44.5 °F /  6.9 °C 30.01in /  1016.1hPa South 5.0mph /  8km/h 11.0mph /  17.7km/h 69% 0.00in /  0mm
19:10 54.2 °F /  12.3 °C 44.2 °F /  6.8 °C 30.01in /  1016.1hPa South 5.0mph /  8km/h 10.0mph /  16.1km/h 69% 0.00in /  0mm
19:14 54.0 °F /  12.2 °C 44.4 °F /  6.9 °C 30.01in /  1016.1hPa South 6.0mph /  9.7km/h 10.0mph /  16.1km/h 70% 0.00in /  0mm
19:19 53.7 °F /  12.1 °C 44.1 °F /  6.7 °C 30.01in /  1016.1hPa SE 2.0mph /  3.2km/h 9.0mph /  14.5km/h 70% 0.00in /  0mm
19:29 53.4 °F /  11.9 °C 44.2 °F /  6.8 °C 30.01in /  1016.1hPa South 5.0mph /  8km/h 10.0mph /  16.1km/h 71% 0.00in /  0mm
19:34 53.2 °F /  11.8 °C 44.0 °F /  6.7 °C 30.01in /  1016.1hPa SSE 3.0mph /  4.8km/h 7.0mph /  11.3km/h 71% 0.00in /  0mm
19:39 53.1 °F /  11.7 °C 43.9 °F /  6.6 °C 30.01in /  1016.1hPa SSW 5.0mph /  8km/h 8.0mph /  12.9km/h 71% 0.00in /  0mm
19:44 52.9 °F /  11.6 °C 43.7 °F /  6.5 °C 30.00in /  1015.8hPa SSE 4.0mph /  6.4km/h 9.0mph /  14.5km/h 71% 0.00in /  0mm
19:49 52.8 °F /  11.6 °C 44.0 °F /  6.7 °C 30.00in /  1015.8hPa SSE 4.0mph /  6.4km/h 9.0mph /  14.5km/h 72% 0.00in /  0mm
19:54 52.8 °F /  11.6 °C 44.0 °F /  6.7 °C 30.00in /  1015.8hPa SSE 3.0mph /  4.8km/h 9.0mph /  14.5km/h 72% 0.00in /  0mm
19:59 52.6 °F /  11.4 °C 43.8 °F /  6.6 °C 29.99in /  1015.5hPa SSE 4.0mph /  6.4km/h 9.0mph /  14.5km/h 72% 0.00in /  0mm
20:04 52.5 °F /  11.4 °C 43.7 °F /  6.5 °C 29.99in /  1015.5hPa SE 5.0mph /  8km/h 7.0mph /  11.3km/h 72% 0.00in /  0mm
20:09 52.5 °F /  11.4 °C 43.7 °F /  6.5 °C 30.00in /  1015.8hPa South 4.0mph /  6.4km/h 6.0mph /  9.7km/h 72% 0.00in /  0mm
20:14 52.5 °F /  11.4 °C 43.7 °F /  6.5 °C 30.01in /  1016.1hPa South 5.0mph /  8km/h 9.0mph /  14.5km/h 72% 0.00in /  0mm
20:19 52.4 °F /  11.3 °C 43.6 °F /  6.4 °C 30.01in /  1016.1hPa South 4.0mph /  6.4km/h 9.0mph /  14.5km/h 72% 0.00in /  0mm
20:24 52.4 °F /  11.3 °C 43.6 °F /  6.4 °C 30.01in /  1016.1hPa South 4.0mph /  6.4km/h 9.0mph /  14.5km/h 72% 0.00in /  0mm
20:29 52.3 °F /  11.3 °C 43.9 °F /  6.6 °C 30.00in /  1015.8hPa South 5.0mph /  8km/h 9.0mph /  14.5km/h 73% 0.00in /  0mm
20:34 52.1 °F /  11.2 °C 44.1 °F /  6.7 °C 30.00in /  1015.8hPa South 5.0mph /  8km/h 9.0mph /  14.5km/h 74% 0.00in /  0mm
20:39 51.7 °F /  10.9 °C 44.4 °F /  6.9 °C 30.00in /  1015.8hPa SE 3.0mph /  4.8km/h 7.0mph /  11.3km/h 76% 0.00in /  0mm
20:44 51.4 °F /  10.8 °C 44.4 °F /  6.9 °C 30.00in /  1015.8hPa South 2.0mph /  3.2km/h 6.0mph /  9.7km/h 77% 0.00in /  0mm
20:49 51.1 °F /  10.6 °C 44.8 °F /  7.1 °C 30.00in /  1015.8hPa South 4.0mph /  6.4km/h 7.0mph /  11.3km/h 79% 0.00in /  0mm
20:54 50.9 °F /  10.5 °C 44.6 °F /  7 °C 30.01in /  1016.1hPa South 4.0mph /  6.4km/h 7.0mph /  11.3km/h 79% 0.00in /  0mm
20:59 50.8 °F /  10.4 °C 44.9 °F /  7.2 °C 30.00in /  1015.8hPa South 6.0mph /  9.7km/h 9.0mph /  14.5km/h 80% 0.00in /  0mm
21:04 50.7 °F /  10.4 °C 44.8 °F /  7.1 °C 30.01in /  1016.1hPa SSE 4.0mph /  6.4km/h 9.0mph /  14.5km/h 80% 0.00in /  0mm
21:09 50.6 °F /  10.3 °C 44.7 °F /  7.1 °C 30.00in /  1015.8hPa SSE 2.0mph /  3.2km/h 8.0mph /  12.9km/h 80% 0.00in /  0mm
21:14 50.6 °F /  10.3 °C 44.7 °F /  7.1 °C 30.01in /  1016.1hPa SSE 5.0mph /  8km/h 7.0mph /  11.3km/h 80% 0.00in /  0mm
21:19 50.6 °F /  10.3 °C 44.7 °F /  7.1 °C 30.01in /  1016.1hPa South 3.0mph /  4.8km/h 7.0mph /  11.3km/h 80% 0.00in /  0mm
21:29 50.5 °F /  10.3 °C 44.6 °F /  7 °C 30.00in /  1015.8hPa South 3.0mph /  4.8km/h 5.0mph /  8km/h 80% 0.00in /  0mm
21:34 50.5 °F /  10.3 °C 44.6 °F /  7 °C 30.00in /  1015.8hPa South 5.0mph /  8km/h 6.0mph /  9.7km/h 80% 0.00in /  0mm
21:39 50.5 °F /  10.3 °C 44.6 °F /  7 °C 30.00in /  1015.8hPa South 5.0mph /  8km/h 7.0mph /  11.3km/h 80% 0.00in /  0mm
21:44 50.6 °F /  10.3 °C 44.3 °F /  6.8 °C 30.00in /  1015.8hPa South 3.0mph /  4.8km/h 6.0mph /  9.7km/h 79% 0.00in /  0mm
21:49 50.5 °F /  10.3 °C 44.2 °F /  6.8 °C 30.00in /  1015.8hPa South 4.0mph /  6.4km/h 9.0mph /  14.5km/h 79% 0.00in /  0mm
21:54 50.5 °F /  10.3 °C 44.2 °F /  6.8 °C 30.00in /  1015.8hPa South 6.0mph /  9.7km/h 6.0mph /  9.7km/h 79% 0.00in /  0mm
21:59 50.5 °F /  10.3 °C 44.2 °F /  6.8 °C 30.00in /  1015.8hPa SSE 6.0mph /  9.7km/h 7.0mph /  11.3km/h 79% 0.00in /  0mm
22:04 50.5 °F /  10.3 °C 44.2 °F /  6.8 °C 30.00in /  1015.8hPa SSE 4.0mph /  6.4km/h 10.0mph /  16.1km/h 79% 0.00in /  0mm
22:09 50.4 °F /  10.2 °C 44.1 °F /  6.7 °C 30.00in /  1015.8hPa SSW 3.0mph /  4.8km/h 9.0mph /  14.5km/h 79% 0.00in /  0mm
22:14 50.4 °F /  10.2 °C 44.1 °F /  6.7 °C 30.00in /  1015.8hPa SSW 3.0mph /  4.8km/h 7.0mph /  11.3km/h 79% 0.00in /  0mm
22:19 50.3 °F /  10.2 °C 44.0 °F /  6.7 °C 30.00in /  1015.8hPa South 4.0mph /  6.4km/h 7.0mph /  11.3km/h 79% 0.00in /  0mm
22:24 50.1 °F /  10.1 °C 43.8 °F /  6.6 °C 30.00in /  1015.8hPa South 4.0mph /  6.4km/h 8.0mph /  12.9km/h 79% 0.00in /  0mm
22:29 50.0 °F /  10 °C 44.1 °F /  6.7 °C 30.00in /  1015.8hPa South 4.0mph /  6.4km/h 9.0mph /  14.5km/h 80% 0.00in /  0mm
22:34 49.8 °F /  9.9 °C 43.9 °F /  6.6 °C 29.99in /  1015.5hPa South 4.0mph /  6.4km/h 9.0mph /  14.5km/h 80% 0.00in /  0mm
22:39 49.8 °F /  9.9 °C 43.9 °F /  6.6 °C 30.00in /  1015.8hPa SSW 4.0mph /  6.4km/h 9.0mph /  14.5km/h 80% 0.01in /  0.25mm
22:44 49.6 °F /  9.8 °C 44.0 °F /  6.7 °C 29.99in /  1015.5hPa South 3.0mph /  4.8km/h 7.0mph /  11.3km/h 81% 0.01in /  0.25mm
22:49 49.4 °F /  9.7 °C 44.1 °F /  6.7 °C 30.00in /  1015.8hPa South 3.0mph /  4.8km/h 7.0mph /  11.3km/h 82% 0.02in /  0.51mm
22:54 49.2 °F /  9.6 °C 44.3 °F /  6.8 °C 29.99in /  1015.5hPa South 3.0mph /  4.8km/h 7.0mph /  11.3km/h 83% 0.02in /  0.51mm
22:59 49.0 °F /  9.4 °C 44.4 °F /  6.9 °C 29.99in /  1015.5hPa South 3.0mph /  4.8km/h 6.0mph /  9.7km/h 84% 0.03in /  0.76mm
23:04 48.9 °F /  9.4 °C 44.3 °F /  6.8 °C 29.99in /  1015.5hPa South 2.0mph /  3.2km/h 7.0mph /  11.3km/h 84% 0.03in /  0.76mm
23:09 48.8 °F /  9.3 °C 44.2 °F /  6.8 °C 29.98in /  1015.1hPa SSW 2.0mph /  3.2km/h 8.0mph /  12.9km/h 84% 0.03in /  0.76mm
23:14 48.8 °F /  9.3 °C 44.5 °F /  6.9 °C 29.98in /  1015.1hPa SSW 4.0mph /  6.4km/h 5.0mph /  8km/h 85% 0.04in /  1.02mm
23:19 48.7 °F /  9.3 °C 44.4 °F /  6.9 °C 29.98in /  1015.1hPa SSW 3.0mph /  4.8km/h 7.0mph /  11.3km/h 85% 0.04in /  1.02mm
23:24 48.7 °F /  9.3 °C 44.4 °F /  6.9 °C 29.99in /  1015.5hPa South 3.0mph /  4.8km/h 7.0mph /  11.3km/h 85% 0.04in /  1.02mm
23:29 48.6 °F /  9.2 °C 44.6 °F /  7 °C 29.98in /  1015.1hPa South 2.0mph /  3.2km/h 5.0mph /  8km/h 86% 0.05in /  1.27mm
23:34 48.4 °F /  9.1 °C 44.4 °F /  6.9 °C 29.98in /  1015.1hPa South 1.0mph /  1.6km/h 5.0mph /  8km/h 86% 0.05in /  1.27mm
23:39 48.3 °F /  9.1 °C 44.6 °F /  7 °C 29.98in /  1015.1hPa South 2.0mph /  3.2km/h 5.0mph /  8km/h 87% 0.04in /  1.02mm
23:44 48.3 °F /  9.1 °C 44.6 °F /  7 °C 29.98in /  1015.1hPa SSE 1.0mph /  1.6km/h 3.0mph /  4.8km/h 87% 0.04in /  1.02mm
23:49 48.2 °F /  9 °C 44.5 °F /  6.9 °C 29.98in /  1015.1hPa SSE 1.0mph /  1.6km/h 4.0mph /  6.4km/h 87% 0.03in /  0.76mm
23:54 48.3 °F /  9.1 °C 44.6 °F /  7 °C 29.97in /  1014.8hPa South 2.0mph /  3.2km/h 6.0mph /  9.7km/h 87% 0.03in /  0.76mm
23:59 48.3 °F /  9.1 °C 44.6 °F /  7 °C 29.97in /  1014.8hPa South 2.0mph /  3.2km/h 5.0mph /  8km/h 87% 0.02in /  0.51mm
Buffalo, New York, USA
Compliments of Weather Underground - 2.5 mb